Impacts METAR Board INFO
IDs:

KFLL - Ft Lauderdale-Hollyw, FL, US

Updated at: 0424 UTC 15 Dec 2017
Potential Impact None Slight Moderate High
Time14/16Z 14/17Z 14/18Z 14/19Z 14/20Z 14/21Z 14/22Z 14/23Z 15/00Z 15/01Z 15/02Z 15/03Z 15/04Z
VIS10 10 10 10 10 10 10 10 10 10 10 10 10
CIG-- -- -- -- -- -- -- -- -- -- -- -- --
CoverCLRCLRFEWFEWFEWFEWFEWFEWFEWFEWCLRCLRCLR
FltCatVFRVFRVFRVFRVFRVFRVFRVFRVFRVFRVFRVFRVFR
WX--------------------------
WDir300000001501502000240240230
WSpd5 3 0 4 3 0 5 5 6 4 6 4 4
WGst-- -- -- -- -- -- -- -- -- -- -- -- --
Raw hourly METARs
KFLL 141553Z 30005KT 10SM CLR 18/06 A3013 RMK AO2 SLP201 T01780061
KFLL 141653Z VRB03KT 10SM CLR 20/06 A3010 RMK AO2 SLP192 T02000056
KFLL 141753Z 00000KT 10SM FEW250 21/02 A3008 RMK AO2 SLP185 T02060022 10206 20100 58017
KFLL 141853Z VRB04KT 10SM FEW250 21/M01 A3006 RMK AO2 SLP178 T02061006
KFLL 141953Z VRB03KT 10SM FEW250 21/00 A3004 RMK AO2 SLP172 T02110000
KFLL 142053Z 00000KT 10SM FEW250 21/00 A3003 RMK AO2 SLP170 T02110000 56016
KFLL 142153Z 15005KT 10SM FEW250 20/03 A3005 RMK AO2 SLP174 T02000033
KFLL 142253Z 15005KT 10SM FEW250 19/08 A3006 RMK AO2 SLP178 T01890078
KFLL 142353Z 20006KT 10SM FEW250 19/09 A3008 RMK AO2 SLP184 T01890094 10217 20189 53015
KFLL 150053Z VRB04KT 10SM FEW250 18/09 A3007 RMK AO2 SLP183 T01780094
KFLL 150153Z 24006KT 10SM CLR 17/09 A3010 RMK AO2 SLP193 T01720094
KFLL 150253Z 24004KT 10SM CLR 17/10 A3010 RMK AO2 SLP191 T01720100 50007
KFLL 150353Z 23004KT 10SM CLR 16/11 A3010 RMK AO2 SLP193 T01560106